Time;durP1;ratioP1;P1;durP2;ratioP2;P2;SDS_P1;SDS_P2;PMS_P1;PMS_P2;Temp;Humidity;BMP_temperature;BMP_pressure;BME280_temperature;BME280_humidity;BME280_pressure;Samples;Min_cycle;Max_cycle;Signal;HPM_P1;HPM_P2
2022/09/12 00:02:21;;;;;;;4.65;1.40;;;;;;;16.48;92.97;101121.66;5024136;28;20037;-69
2022/09/12 00:04:46;;;;;;;2.08;1.52;;;;;;;16.63;92.15;101120.56;5040109;28;20037;-69
2022/09/12 00:07:12;;;;;;;2.42;1.52;;;;;;;16.57;91.59;101120.16;5021142;28;20032;-71
2022/09/12 00:09:38;;;;;;;2.22;1.60;;;;;;;16.57;91.67;101125.59;5039114;28;20025;-71
2022/09/12 00:12:04;;;;;;;2.13;1.40;;;;;;;16.59;90.77;101117.84;5044120;28;20028;-71
2022/09/12 00:14:30;;;;;;;2.03;1.73;;;;;;;16.42;91.60;101121.25;5025415;28;20033;-69
2022/09/12 00:17:00;;;;;;;2.17;1.50;;;;;;;16.26;92.46;101123.50;5042335;28;20029;-70
2022/09/12 00:19:27;;;;;;;1.60;1.20;;;;;;;16.16;93.40;101116.84;5045766;28;20028;-71
2022/09/12 00:21:53;;;;;;;2.05;1.30;;;;;;;16.19;92.91;101109.88;5038161;28;20047;-71
2022/09/12 00:24:18;;;;;;;2.17;1.50;;;;;;;16.08;93.11;101106.34;5047393;28;20032;-70
2022/09/12 00:26:44;;;;;;;1.80;1.08;;;;;;;16.07;93.74;101112.91;5047714;28;20497;-69
2022/09/12 00:29:16;;;;;;;3.70;1.25;;;;;;;16.00;93.79;101108.25;5037917;28;20497;-71
2022/09/12 00:31:41;;;;;;;1.38;0.98;;;;;;;16.09;93.41;101103.22;5044774;28;20614;-71
2022/09/12 00:34:08;;;;;;;1.30;1.17;;;;;;;16.34;91.76;101105.28;5040815;28;20151;-71
2022/09/12 00:36:34;;;;;;;1.73;1.33;;;;;;;16.49;90.49;101109.66;5042371;28;20036;-70
2022/09/12 00:39:00;;;;;;;1.42;1.13;;;;;;;16.53;89.67;101102.28;5017009;28;20051;-71
2022/09/12 00:41:35;;;;;;;1.88;1.08;;;;;;;16.27;90.88;101103.31;5027863;28;20028;-71
2022/09/12 00:44:23;;;;;;;1.65;1.20;;;;;;;16.10;91.88;101104.78;5036550;28;20132;-71
2022/09/12 00:47:28;;;;;;;1.30;1.20;;;;;;;16.04;92.34;101097.38;5032843;28;20512;-71
2022/09/12 00:50:06;;;;;;;1.38;0.77;;;;;;;16.02;92.37;101100.50;4985447;28;20073;-70
2022/09/12 00:52:41;;;;;;;2.20;0.85;;;;;;;15.84;93.39;101088.72;4991483;28;20060;-71
2022/09/12 00:55:23;;;;;;;1.02;0.93;;;;;;;15.85;93.66;101093.00;4986398;28;20061;-71
2022/09/12 00:57:52;;;;;;;0.65;0.63;;;;;;;15.84;94.00;101094.16;4952471;28;20035;-69
2022/09/12 01:00:22;;;;;;;1.65;1.02;;;;;;;15.81;93.20;101089.50;4977686;28;20045;-69
2022/09/12 01:03:00;;;;;;;2.63;1.38;;;;;;;15.98;92.37;101088.81;4987678;28;20045;-68
2022/09/12 01:05:28;;;;;;;1.83;0.73;;;;;;;15.94;91.90;101087.22;4954037;28;20038;-68
2022/09/12 01:07:55;;;;;;;1.23;0.80;;;;;;;15.79;91.87;101089.09;4987685;28;20141;-68
2022/09/12 01:10:23;;;;;;;1.08;0.98;;;;;;;15.78;92.07;101076.66;4984447;28;21097;-70
2022/09/12 01:12:49;;;;;;;0.90;0.82;;;;;;;15.90;90.95;101081.78;4992301;28;20042;-67
2022/09/12 01:15:14;;;;;;;1.17;0.73;;;;;;;15.81;90.86;101078.63;4965842;28;20074;-68
2022/09/12 01:17:56;;;;;;;1.55;1.10;;;;;;;15.61;91.92;101084.69;4987377;28;20517;-69
2022/09/12 01:20:47;;;;;;;1.00;0.90;;;;;;;15.62;91.87;101086.28;5005725;28;20045;-68
2022/09/12 01:23:40;;;;;;;1.50;0.90;;;;;;;15.58;92.71;101085.47;5043074;28;20040;-67
2022/09/12 01:26:30;;;;;;;1.20;0.75;;;;;;;15.68;92.74;101076.63;5052230;28;20107;-70
2022/09/12 01:29:01;;;;;;;3.20;0.80;;;;;;;15.62;93.13;101086.28;5035800;28;20048;-67
2022/09/12 01:31:37;;;;;;;;;;;;;;;15.63;93.08;101082.38;5028880;28;20033;-69
2022/09/12 01:34:03;;;;;;;1.08;0.73;;;;;;;15.78;91.57;101078.59;5040055;28;19968;-67
2022/09/12 01:36:55;;;;;;;1.27;0.93;;;;;;;15.72;91.20;101075.47;5041698;28;20075;-68
2022/09/12 01:39:36;;;;;;;0.73;0.73;;;;;;;15.71;90.47;101073.13;5037740;28;20512;-68
2022/09/12 01:42:16;;;;;;;9.27;1.13;;;;;;;15.55;91.43;101070.69;5020192;28;20042;-70
2022/09/12 01:44:55;;;;;;;1.00;0.85;;;;;;;15.61;90.93;101077.34;5047799;28;20054;-68
2022/09/12 01:47:32;;;;;;;1.05;0.93;;;;;;;15.39;92.08;101072.88;5048817;28;20041;-68
2022/09/12 01:50:05;;;;;;;0.70;0.70;;;;;;;15.28;92.61;101070.09;5043914;28;20041;-68
2022/09/12 01:52:54;;;;;;;0.70;0.68;;;;;;;15.25;92.72;101059.97;5028543;28;20086;-68
2022/09/12 01:55:26;;;;;;;2.45;1.10;;;;;;;15.27;92.14;101068.50;5049910;28;20116;-68
2022/09/12 01:57:57;;;;;;;1.48;1.10;;;;;;;15.21;92.79;101061.13;5046003;28;21398;-68
2022/09/12 02:00:23;;;;;;;3.00;1.00;;;;;;;15.15;93.27;101059.91;5040660;28;20025;-69
2022/09/12 02:03:01;;;;;;;1.50;1.00;;;;;;;15.12;92.91;101066.84;5042543;28;20179;-68
2022/09/12 02:05:44;;;;;;;1.10;1.00;;;;;;;15.06;93.20;101059.44;5033064;28;20065;-68
2022/09/12 02:08:16;;;;;;;1.05;1.00;;;;;;;15.01;93.55;101049.72;5046359;28;20044;-68
2022/09/12 02:11:02;;;;;;;1.63;1.50;;;;;;;15.06;93.27;101059.44;5037176;28;20402;-70
2022/09/12 02:13:54;;;;;;;2.10;1.08;;;;;;;15.15;92.63;101047.13;5041472;28;20132;-68
2022/09/12 02:17:01;;;;;;;0.80;0.63;;;;;;;15.21;92.09;101050.25;5005670;28;20041;-70
2022/09/12 02:19:33;;;;;;;1.38;0.80;;;;;;;15.08;92.57;101049.75;5036626;28;20053;-67
2022/09/12 02:22:01;;;;;;;1.00;0.90;;;;;;;14.99;92.45;101048.50;5020187;28;20044;-71
2022/09/12 02:24:39;;;;;;;1.73;1.00;;;;;;;14.98;92.78;101050.44;5031029;28;20507;-69
2022/09/12 02:27:20;;;;;;;1.33;0.95;;;;;;;14.95;92.66;101045.00;5049283;28;20039;-68
2022/09/12 02:29:46;;;;;;;0.95;0.80;;;;;;;15.01;92.07;101046.22;5016757;28;20029;-67
2022/09/12 02:32:26;;;;;;;1.20;0.90;;;;;;;14.86;92.65;101041.81;5047188;28;20083;-68
2022/09/12 02:34:58;;;;;;;0.85;0.80;;;;;;;15.05;92.42;101039.66;5043842;28;20140;-68
2022/09/12 02:37:37;;;;;;;1.08;0.98;;;;;;;15.09;91.93;101036.97;5044668;28;20098;-67
2022/09/12 02:40:05;;;;;;;1.10;0.80;;;;;;;15.09;91.59;101045.91;5048312;28;20037;-68
2022/09/12 02:42:31;;;;;;;2.15;0.98;;;;;;;15.21;90.75;101048.31;5051518;28;20046;-70
2022/09/12 02:44:57;;;;;;;1.70;1.08;;;;;;;15.10;91.03;101041.25;5053482;28;20120;-68
2022/09/12 02:47:47;;;;;;;0.70;0.70;;;;;;;15.12;90.87;101034.28;5054671;28;20037;-68
2022/09/12 02:50:13;;;;;;;1.30;1.17;;;;;;;15.21;90.02;101034.75;5046541;28;20116;-69
2022/09/12 02:52:40;;;;;;;1.25;0.98;;;;;;;15.03;90.77;101033.06;5046975;28;20113;-71
2022/09/12 02:55:06;;;;;;;1.05;0.95;;;;;;;14.94;91.25;101035.31;5025796;28;20563;-70
2022/09/12 02:57:32;;;;;;;1.63;0.90;;;;;;;14.94;91.27;101035.31;5040893;28;20036;-68
2022/09/12 03:00:00;;;;;;;1.05;0.73;;;;;;;15.02;90.68;101026.84;5022887;28;20123;-68
2022/09/12 03:02:33;;;;;;;0.75;0.73;;;;;;;15.09;90.70;101023.41;5044997;28;20124;-73
2022/09/12 03:05:19;;;;;;;0.63;0.63;;;;;;;14.95;91.16;101026.78;5026790;28;20821;-69
2022/09/12 03:08:04;;;;;;;1.15;0.82;;;;;;;14.70;92.33;101022.28;5023535;28;20041;-68
2022/09/12 03:10:48;;;;;;;0.60;0.60;;;;;;;14.80;92.43;101030.53;5053839;28;20575;-68
2022/09/12 03:13:14;;;;;;;0.93;0.80;;;;;;;14.73;92.88;101022.31;5039686;28;20021;-68
2022/09/12 03:15:42;;;;;;;0.90;0.90;;;;;;;14.69;93.05;101023.47;5025648;28;20490;-68
2022/09/12 03:18:30;;;;;;;1.02;0.80;;;;;;;14.63;92.95;101025.72;5039244;28;20405;-67
2022/09/12 03:21:01;;;;;;;1.20;0.90;;;;;;;14.73;92.38;101025.03;5040234;28;20037;-67
2022/09/12 03:23:33;;;;;;;2.33;1.60;;;;;;;14.80;92.18;101025.13;5024785;28;20042;-67
2022/09/12 03:26:07;;;;;;;2.63;1.50;;;;;;;14.75;91.69;101030.84;5048147;28;20032;-67
2022/09/12 03:28:35;;;;;;;3.33;1.63;;;;;;;14.67;91.47;101020.34;5019175;28;20034;-68
2022/09/12 03:33:40;;;;;;;6.53;1.95;;;;;;;14.38;93.09;101030.13;5017684;28;20056;-67
2022/09/12 03:36:05;;;;;;;5.70;2.42;;;;;;;14.37;92.91;101029.31;5035795;28;20033;-67
2022/09/12 03:38:31;;;;;;;8.25;2.63;;;;;;;14.30;93.12;101031.94;5022687;28;20045;-67
2022/09/12 03:40:56;;;;;;;2.67;1.27;;;;;;;14.24;93.48;101040.75;5036372;28;20182;-67
2022/09/12 03:43:22;;;;;;;1.27;1.05;;;;;;;14.26;93.70;101039.25;5029274;28;20029;-67
2022/09/12 03:45:53;;;;;;;1.50;0.90;;;;;;;14.33;93.54;101035.84;5026276;28;20105;-67
2022/09/12 03:48:18;;;;;;;1.35;0.95;;;;;;;14.33;93.54;101036.63;5038578;28;20038;-67
2022/09/12 03:50:43;;;;;;;1.20;1.00;;;;;;;14.33;93.45;101033.13;5031082;28;20036;-67
2022/09/12 03:53:09;;;;;;;2.03;0.98;;;;;;;14.20;93.59;101031.81;5028858;28;20029;-67
2022/09/12 03:55:35;;;;;;;0.70;0.70;;;;;;;14.22;93.98;101035.72;5028542;28;20029;-67
2022/09/12 03:58:00;;;;;;;2.95;1.48;;;;;;;14.22;93.72;101033.00;5031860;28;20029;-67
2022/09/12 04:00:26;;;;;;;1.42;1.05;;;;;;;14.23;94.05;101042.69;5030960;28;20041;-67
2022/09/12 04:02:54;;;;;;;1.60;1.10;;;;;;;14.37;93.01;101039.38;5010946;28;20033;-67
2022/09/12 04:05:20;;;;;;;1.30;1.20;;;;;;;14.56;91.77;101038.41;5025191;28;20021;-67
2022/09/12 04:07:45;;;;;;;1.70;1.20;;;;;;;14.44;92.34;101037.53;5036761;28;20039;-67
2022/09/12 04:10:10;;;;;;;1.40;0.95;;;;;;;14.33;92.56;101041.25;5029282;28;20524;-67
2022/09/12 04:12:38;;;;;;;1.23;0.85;;;;;;;14.22;93.34;101030.28;5036653;28;20037;-67
2022/09/12 04:15:06;;;;;;;2.05;1.15;;;;;;;14.22;93.88;101041.13;5033868;28;20067;-67
2022/09/12 04:17:33;;;;;;;0.95;0.80;;;;;;;14.18;94.07;101037.59;5012999;28;20111;-67
2022/09/12 04:19:59;;;;;;;0.90;0.90;;;;;;;14.29;93.65;101035.81;5024345;28;20037;-67
2022/09/12 04:22:24;;;;;;;1.33;1.08;;;;;;;14.32;93.15;101032.34;5028338;28;20048;-67
2022/09/12 04:24:49;;;;;;;1.80;1.35;;;;;;;14.19;92.88;101041.84;5013668;28;20034;-67
2022/09/12 04:27:15;;;;;;;1.08;0.93;;;;;;;14.16;93.54;101045.31;5001218;28;20117;-67
2022/09/12 04:29:41;;;;;;;1.23;0.88;;;;;;;14.14;93.46;101034.06;5042529;28;20108;-67
2022/09/12 04:32:06;;;;;;;1.20;1.10;;;;;;;14.19;93.63;101028.31;5030184;28;20033;-67
2022/09/12 04:34:32;;;;;;;2.70;1.20;;;;;;;14.41;92.17;101030.16;5027091;28;20029;-67
2022/09/12 04:36:57;;;;;;;1.45;1.05;;;;;;;14.65;90.12;101028.06;5028645;28;20052;-66
2022/09/12 04:39:23;;;;;;;1.08;1.00;;;;;;;14.41;91.13;101024.72;5013198;28;20024;-66
2022/09/12 04:41:48;;;;;;;1.27;0.98;;;;;;;14.20;91.82;101032.59;5032767;28;20033;-67
2022/09/12 04:44:14;;;;;;;1.30;1.17;;;;;;;14.04;92.67;101025.78;5027183;28;20037;-66
2022/09/12 04:46:44;;;;;;;5.90;1.00;;;;;;;14.11;92.79;101025.91;5049528;28;20041;-66
2022/09/12 04:49:10;;;;;;;1.63;1.17;;;;;;;14.22;92.21;101026.78;5028153;28;20037;-66
2022/09/12 04:51:39;;;;;;;1.00;0.90;;;;;;;14.30;91.20;101031.19;5027249;28;20053;-66
2022/09/12 04:54:16;;;;;;;1.63;1.00;;;;;;;14.17;91.84;101027.09;5009648;28;20102;-66
2022/09/12 04:56:44;;;;;;;1.30;0.98;;;;;;;14.05;93.00;101027.38;5030611;28;20039;-67
2022/09/12 04:59:12;;;;;;;1.27;1.00;;;;;;;14.16;92.65;101030.97;5013274;28;20048;-66
2022/09/12 05:01:38;;;;;;;1.10;0.80;;;;;;;14.19;91.79;101030.22;5025019;28;20414;-66
2022/09/12 05:04:04;;;;;;;1.42;1.05;;;;;;;14.11;92.26;101029.38;5027356;28;20397;-67
2022/09/12 05:06:33;;;;;;;1.55;1.00;;;;;;;14.25;91.99;101026.84;5028224;28;20025;-66
2022/09/12 05:08:59;;;;;;;3.05;0.93;;;;;;;14.09;92.45;101026.25;5029618;28;20045;-66
2022/09/12 05:11:27;;;;;;;1.10;1.00;;;;;;;14.11;93.07;101026.66;5029620;28;20072;-66
2022/09/12 05:13:53;;;;;;;0.85;0.73;;;;;;;14.22;92.29;101027.59;5009265;28;20032;-66
2022/09/12 05:16:20;;;;;;;1.63;1.20;;;;;;;14.14;92.66;101031.34;5033640;28;20568;-66
2022/09/12 05:18:46;;;;;;;1.92;0.98;;;;;;;14.15;92.84;101034.84;5029818;28;20033;-67
2022/09/12 05:21:14;;;;;;;1.55;1.10;;;;;;;14.25;92.29;101032.25;5027644;28;20154;-66
2022/09/12 05:23:41;;;;;;;2.13;1.15;;;;;;;14.16;92.79;101039.91;5025221;28;20025;-66
2022/09/12 05:26:07;;;;;;;1.33;1.00;;;;;;;14.03;94.09;101027.72;5027302;28;20120;-67
2022/09/12 05:28:35;;;;;;;1.58;1.45;;;;;;;14.01;94.15;101027.34;5033894;28;20025;-66
2022/09/12 05:31:12;;;;;;;2.35;0.88;;;;;;;13.99;95.04;101024.22;5026910;28;20103;-66
2022/09/12 05:33:41;;;;;;;1.50;1.20;;;;;;;14.03;95.00;101033.13;5024301;28;20041;-67
2022/09/12 05:36:10;;;;;;;1.25;1.10;;;;;;;14.12;94.60;101033.66;5030373;28;20056;-66
2022/09/12 05:38:36;;;;;;;1.55;1.00;;;;;;;14.14;94.51;101027.84;5028311;28;20033;-66
2022/09/12 05:41:06;;;;;;;1.13;1.02;;;;;;;14.16;94.90;101031.75;5035350;28;20040;-67
2022/09/12 05:43:33;;;;;;;1.50;1.20;;;;;;;14.24;94.78;101030.72;5026471;28;20048;-66
2022/09/12 05:46:03;;;;;;;1.30;1.05;;;;;;;14.28;94.56;101033.47;5039795;28;20038;-66
2022/09/12 05:48:29;;;;;;;1.98;1.20;;;;;;;14.43;93.96;101035.97;5037907;28;20508;-66
2022/09/12 05:51:02;;;;;;;4.65;1.23;;;;;;;14.52;93.19;101035.66;5016490;28;20029;-67
2022/09/12 05:53:29;;;;;;;2.30;1.20;;;;;;;14.44;94.68;101025.91;4990944;28;20026;-66
2022/09/12 05:56:09;;;;;;;3.80;1.65;;;;;;;14.43;94.83;101027.84;5009249;28;20033;-66
2022/09/12 05:58:37;;;;;;;1.30;1.13;;;;;;;14.48;95.31;101036.78;5036691;28;20037;-66
2022/09/12 06:01:06;;;;;;;1.50;1.15;;;;;;;14.51;95.18;101031.41;5032784;28;20041;-66
2022/09/12 06:03:32;;;;;;;1.20;1.10;;;;;;;14.47;96.03;101038.72;5032114;28;20493;-66
2022/09/12 06:06:01;;;;;;;1.70;1.33;;;;;;;14.48;96.64;101034.09;5029293;28;20041;-66
2022/09/12 06:08:26;;;;;;;1.40;1.20;;;;;;;14.54;96.64;101032.59;5033480;28;20038;-66
2022/09/12 06:10:58;;;;;;;1.90;1.35;;;;;;;14.59;97.18;101049.31;5032946;28;20398;-66
2022/09/12 06:13:23;;;;;;;1.02;0.93;;;;;;;14.64;97.71;101043.53;5028307;28;20404;-66
2022/09/12 06:15:49;;;;;;;1.30;1.00;;;;;;;14.69;97.64;101045.16;5025407;28;20025;-67
2022/09/12 06:18:14;;;;;;;5.65;1.35;;;;;;;14.76;97.65;101045.19;5044071;28;20037;-66
2022/09/12 06:20:40;;;;;;;2.95;1.75;;;;;;;14.96;97.10;101046.56;5032274;28;20038;-67
2022/09/12 06:23:05;;;;;;;1.85;1.50;;;;;;;14.97;97.45;101042.69;5041951;28;20052;-67
2022/09/12 06:25:31;;;;;;;1.88;1.45;;;;;;;14.97;97.90;101050.81;5045004;28;20033;-66
2022/09/12 06:27:56;;;;;;;1.27;1.13;;;;;;;15.08;98.08;101046.25;5033430;28;20524;-66
2022/09/12 06:30:21;;;;;;;2.45;1.40;;;;;;;15.10;98.84;101058.31;5027657;28;20429;-67
2022/09/12 06:32:47;;;;;;;2.30;1.33;;;;;;;15.12;98.77;101047.84;5015688;28;20038;-66
2022/09/12 06:35:12;;;;;;;2.55;1.95;;;;;;;15.19;99.46;101053.31;5036468;28;20040;-66
2022/09/12 06:37:38;;;;;;;3.03;1.70;;;;;;;15.34;99.34;101043.38;5036525;28;20408;-66
2022/09/12 06:40:03;;;;;;;5.40;2.67;;;;;;;15.48;99.83;101046.22;5033907;28;20044;-66
2022/09/12 06:42:29;;;;;;;5.90;2.75;;;;;;;15.69;100.00;101046.34;5037717;28;20021;-66
2022/09/12 06:44:55;;;;;;;8.77;3.80;;;;;;;15.82;100.00;101046.81;5032374;28;20452;-66
2022/09/12 06:47:21;;;;;;;4.88;3.13;;;;;;;16.06;100.00;101044.22;5032485;28;20033;-66
2022/09/12 06:49:46;;;;;;;6.57;3.28;;;;;;;16.31;100.00;101032.66;5024323;28;20025;-66
2022/09/12 06:52:11;;;;;;;5.47;2.97;;;;;;;16.43;100.00;101037.75;5027346;28;20393;-66
2022/09/12 06:54:37;;;;;;;6.38;3.17;;;;;;;16.66;100.00;101039.00;5044116;28;20120;-66
2022/09/12 06:57:02;;;;;;;5.72;3.15;;;;;;;16.86;99.74;101037.44;5034751;28;20414;-67
2022/09/12 06:59:28;;;;;;;9.23;3.60;;;;;;;17.00;99.56;101045.63;5032367;28;20037;-67
2022/09/12 07:01:53;;;;;;;4.13;2.85;;;;;;;16.98;99.31;101050.69;5027991;28;20038;-66
2022/09/12 07:04:19;;;;;;;5.20;2.65;;;;;;;17.21;98.85;101050.28;5032004;28;20505;-66
2022/09/12 07:06:44;;;;;;;5.25;3.00;;;;;;;17.37;98.23;101047.16;5031965;28;20045;-66
2022/09/12 07:09:12;;;;;;;4.38;2.67;;;;;;;17.80;96.35;101049.47;5026681;28;20060;-67
2022/09/12 07:11:40;;;;;;;6.10;2.95;;;;;;;17.74;96.05;101056.47;5032653;28;20036;-66
2022/09/12 07:14:08;;;;;;;5.63;2.45;;;;;;;18.00;95.14;101047.81;5018009;28;20037;-66
2022/09/12 07:16:36;;;;;;;4.57;2.78;;;;;;;17.89;94.36;101041.66;5032818;28;20490;-67
2022/09/12 07:19:04;;;;;;;3.50;2.10;;;;;;;18.16;92.58;101046.59;5030146;28;20039;-66
2022/09/12 07:21:29;;;;;;;4.57;2.50;;;;;;;18.16;92.60;101043.88;5031822;28;20048;-66
2022/09/12 07:23:58;;;;;;;3.83;2.40;;;;;;;18.14;92.86;101048.97;5023128;28;20120;-66
2022/09/12 07:26:26;;;;;;;4.35;2.47;;;;;;;18.33;92.74;101046.50;5027246;28;20030;-67
2022/09/12 07:28:53;;;;;;;4.55;2.35;;;;;;;18.61;91.70;101048.34;5021220;28;20045;-67
2022/09/12 07:31:21;;;;;;;5.60;2.15;;;;;;;18.77;90.41;101051.38;5036488;28;20120;-66
2022/09/12 07:33:49;;;;;;;2.70;1.80;;;;;;;19.12;90.22;101045.66;5035326;28;20041;-66
2022/09/12 07:36:16;;;;;;;3.83;2.10;;;;;;;19.27;89.00;101051.75;5014460;28;20363;-66
2022/09/12 07:38:42;;;;;;;2.78;1.90;;;;;;;19.34;88.61;101048.97;5027488;28;20025;-66
2022/09/12 07:41:22;;;;;;;2.78;1.80;;;;;;;19.30;88.36;101040.03;5029746;28;20042;-67
2022/09/12 07:43:52;;;;;;;3.92;1.80;;;;;;;19.52;87.22;101052.31;5032703;28;20061;-66
2022/09/12 07:46:17;;;;;;;2.03;1.75;;;;;;;19.58;86.12;101040.56;5029987;28;20085;-66
2022/09/12 07:48:44;;;;;;;3.95;1.60;;;;;;;19.78;86.71;101041.50;5032944;28;20533;-67
2022/09/12 07:51:10;;;;;;;2.85;1.50;;;;;;;19.94;85.69;101034.72;5024920;28;20091;-66
2022/09/12 07:53:38;;;;;;;2.67;1.35;;;;;;;20.22;86.73;101042.59;5022240;28;20130;-67
2022/09/12 07:56:06;;;;;;;2.03;1.35;;;;;;;20.39;85.88;101038.84;5025562;28;20029;-66
2022/09/12 07:58:33;;;;;;;1.50;1.30;;;;;;;20.62;85.05;101034.19;5029119;28;20091;-66
2022/09/12 08:01:19;;;;;;;1.40;0.88;;;;;;;20.98;83.66;101041.88;5017616;28;20144;-66
2022/09/12 08:03:47;;;;;;;1.05;0.80;;;;;;;21.18;82.70;101051.72;5027042;28;20033;-67
2022/09/12 08:06:23;;;;;;;2.50;1.40;;;;;;;21.40;81.95;101039.22;5021570;28;20044;-66
2022/09/12 08:08:49;;;;;;;1.45;1.27;;;;;;;21.56;80.48;101039.31;5010175;28;20124;-66
2022/09/12 08:11:17;;;;;;;1.20;1.10;;;;;;;21.86;79.41;101051.31;5024873;28;20600;-67
2022/09/12 08:13:43;;;;;;;1.67;1.00;;;;;;;22.03;79.22;101047.44;5020704;28;20069;-67
2022/09/12 08:16:19;;;;;;;3.92;1.25;;;;;;;21.92;76.81;101044.16;5007821;28;20036;-66
2022/09/12 08:18:45;;;;;;;1.38;1.15;;;;;;;22.13;75.80;101054.69;5027288;28;20416;-67
2022/09/12 08:21:22;;;;;;;1.77;1.13;;;;;;;22.00;75.31;101051.03;5019825;28;20042;-67
2022/09/12 08:23:56;;;;;;;2.45;1.35;;;;;;;21.85;74.04;101045.06;5017308;28;20061;-67
2022/09/12 08:26:22;;;;;;;1.48;0.90;;;;;;;21.78;75.26;101042.41;5023433;28;20512;-67
2022/09/12 08:28:48;;;;;;;1.58;1.13;;;;;;;22.10;75.37;101042.59;5008042;28;20509;-67
2022/09/12 08:31:17;;;;;;;1.60;1.20;;;;;;;21.99;73.39;101044.78;5022073;28;20125;-66
2022/09/12 08:33:43;;;;;;;1.02;0.88;;;;;;;22.35;73.90;101042.06;5023390;28;20045;-67
2022/09/12 08:36:18;;;;;;;1.48;1.05;;;;;;;22.08;72.03;101049.72;5020775;28;20033;-66
2022/09/12 08:38:45;;;;;;;1.90;0.95;;;;;;;22.08;74.47;101049.72;5027052;28;20029;-66
2022/09/12 08:41:17;;;;;;;1.30;0.88;;;;;;;22.25;75.08;101040.31;5022785;28;20100;-66
2022/09/12 08:43:58;;;;;;;2.10;1.20;;;;;;;22.30;71.94;101043.34;5014345;28;20068;-67
2022/09/12 08:46:33;;;;;;;4.35;1.45;;;;;;;22.25;72.01;101049.34;5023505;28;20504;-67
2022/09/12 08:49:01;;;;;;;1.15;1.00;;;;;;;22.45;72.58;101049.31;5021279;28;20122;-67
2022/09/12 08:51:28;;;;;;;1.52;1.10;;;;;;;22.68;71.33;101051.16;5025338;28;20556;-68
2022/09/12 08:53:55;;;;;;;1.70;1.25;;;;;;;22.59;70.25;101043.50;4998283;28;20490;-67
2022/09/12 08:56:22;;;;;;;1.60;1.10;;;;;;;22.52;69.85;101054.63;5017383;28;20555;-67
2022/09/12 08:58:48;;;;;;;3.05;1.40;;;;;;;22.25;70.97;101043.84;5009278;28;20125;-67
2022/09/12 09:01:28;;;;;;;3.33;1.17;;;;;;;21.97;71.90;101046.41;5023914;28;20077;-67
2022/09/12 09:03:55;;;;;;;1.38;1.15;;;;;;;22.30;73.05;101037.84;5026546;28;20083;-67
2022/09/12 09:06:58;;;;;;;1.45;1.10;;;;;;;22.72;71.80;101041.66;5031089;28;20029;-67
2022/09/12 09:09:29;;;;;;;1.48;1.10;;;;;;;22.72;71.52;101029.88;5014673;28;20026;-67
2022/09/12 09:12:13;;;;;;;1.70;0.70;;;;;;;22.95;70.71;101029.72;5020061;28;20041;-67
2022/09/12 09:15:04;;;;;;;1.45;1.17;;;;;;;22.76;68.50;101031.38;4998975;28;20030;-66
2022/09/12 09:17:46;;;;;;;1.48;0.90;;;;;;;22.85;68.21;101028.78;5008976;28;20041;-67
2022/09/12 09:20:48;;;;;;;1.30;0.95;;;;;;;23.00;69.21;101023.69;5022747;28;20069;-67
2022/09/12 09:23:24;;;;;;;1.38;1.00;;;;;;;22.92;67.92;101028.59;5017769;28;20033;-67
2022/09/12 09:26:08;;;;;;;1.48;0.93;;;;;;;23.19;67.48;101022.81;5028702;28;20041;-67
2022/09/12 09:28:44;;;;;;;1.35;0.77;;;;;;;23.18;66.54;101024.03;5028087;28;20113;-67
2022/09/12 09:31:17;;;;;;;1.10;1.00;;;;;;;23.36;66.30;101034.63;5026788;28;20079;-66
2022/09/12 09:33:46;;;;;;;1.92;0.90;;;;;;;23.29;65.36;101021.78;5028153;28;20029;-66
2022/09/12 09:36:33;;;;;;;2.17;1.40;;;;;;;22.91;66.21;101015.28;5033243;28;20108;-66
2022/09/12 09:39:18;;;;;;;1.48;1.25;;;;;;;23.07;67.37;101002.31;5029243;28;20375;-66
2022/09/12 09:42:09;;;;;;;3.17;0.90;;;;;;;23.40;67.57;101007.78;5040495;28;20397;-66
2022/09/12 09:44:35;;;;;;;1.40;0.85;;;;;;;23.71;65.71;101006.16;5030554;28;20033;-66
2022/09/12 09:47:01;;;;;;;1.13;1.02;;;;;;;23.85;62.69;100998.25;5033845;28;20068;-66
2022/09/12 09:49:30;;;;;;;1.55;1.00;;;;;;;23.99;60.85;101008.88;5033761;28;20075;-66
2022/09/12 09:51:59;;;;;;;3.90;1.25;;;;;;;23.89;62.67;101006.41;5030123;28;20056;-67
2022/09/12 09:54:52;;;;;;;3.95;1.23;;;;;;;24.10;63.19;101008.56;5031666;28;20103;-66
2022/09/12 09:57:37;;;;;;;1.55;1.02;;;;;;;24.41;61.17;101000.56;5017236;28;20043;-66
2022/09/12 10:00:29;;;;;;;1.60;0.88;;;;;;;24.01;59.95;101002.91;5016156;28;20440;-66
2022/09/12 10:03:03;;;;;;;;;;;;;;;24.13;61.02;101000.22;5028302;28;20037;-66
2022/09/12 10:05:32;;;;;;;1.00;0.73;;;;;;;24.08;59.57;101008.22;5015081;28;19917;-66
2022/09/12 10:07:57;;;;;;;1.25;1.00;;;;;;;24.03;60.13;100993.06;5035033;28;20034;-66
2022/09/12 10:10:24;;;;;;;1.17;1.00;;;;;;;24.06;61.71;100999.66;5031566;28;20108;-66
2022/09/12 10:12:50;;;;;;;1.08;0.98;;;;;;;24.07;62.38;100995.69;5039308;28;20075;-66
2022/09/12 10:15:21;;;;;;;0.80;0.77;;;;;;;24.13;61.54;100993.94;5039803;28;20052;-66
2022/09/12 10:17:49;;;;;;;1.20;1.00;;;;;;;23.48;62.12;100990.66;5033290;28;20044;-66
2022/09/12 10:20:29;;;;;;;1.30;0.98;;;;;;;23.73;61.99;100998.25;5032609;28;20042;-65
2022/09/12 10:22:57;;;;;;;1.00;0.85;;;;;;;23.94;63.62;100990.13;5014388;28;20045;-66
2022/09/12 10:25:24;;;;;;;1.05;0.90;;;;;;;23.77;63.92;100987.91;5033094;28;20048;-66
2022/09/12 10:27:58;;;;;;;1.05;0.98;;;;;;;24.16;63.40;100993.06;5033217;28;20033;-66
2022/09/12 10:30:27;;;;;;;1.20;1.00;;;;;;;24.28;62.15;100989.53;5020062;28;20040;-66
2022/09/12 10:32:56;;;;;;;1.38;1.00;;;;;;;24.33;62.08;100986.22;5035840;28;20398;-66
2022/09/12 10:35:32;;;;;;;0.90;0.90;;;;;;;24.49;62.17;100993.59;5030687;28;20040;-66
2022/09/12 10:38:02;;;;;;;2.05;0.80;;;;;;;24.57;62.64;100990.19;5025885;28;20034;-66
2022/09/12 10:40:32;;;;;;;1.85;1.30;;;;;;;24.40;59.11;100991.53;5029030;28;20229;-66
2022/09/12 10:42:59;;;;;;;1.63;1.15;;;;;;;24.39;59.99;100989.97;5014609;28;20037;-66
2022/09/12 10:45:30;;;;;;;1.30;1.08;;;;;;;24.50;59.22;100976.66;5031695;28;20037;-66
2022/09/12 10:48:20;;;;;;;3.75;1.63;;;;;;;24.56;60.17;100972.16;5032539;28;20063;-66
2022/09/12 10:50:45;;;;;;;2.50;1.60;;;;;;;24.56;59.63;100980.41;5028102;28;20041;-66
2022/09/12 10:53:27;;;;;;;2.28;1.50;;;;;;;24.44;60.88;100975.66;5038967;28;20055;-66
2022/09/12 10:56:19;;;;;;;3.13;1.42;;;;;;;24.56;62.13;100976.88;5032656;28;20041;-66
2022/09/12 10:59:19;;;;;;;1.20;1.00;;;;;;;24.68;59.52;100963.06;5028831;28;20399;-66
2022/09/12 11:02:04;;;;;;;1.42;1.10;;;;;;;24.81;59.07;100965.84;5024999;28;20044;-66
2022/09/12 11:04:35;;;;;;;1.42;1.00;;;;;;;24.95;60.43;100966.13;5019130;28;20033;-66
2022/09/12 11:07:20;;;;;;;2.22;1.48;;;;;;;25.09;58.89;100964.13;5009574;28;20410;-66
2022/09/12 11:09:54;;;;;;;1.20;1.00;;;;;;;25.18;58.66;100969.72;5016818;28;20037;-66
2022/09/12 11:12:28;;;;;;;2.13;1.20;;;;;;;25.04;58.33;100971.75;5045888;28;20032;-66
2022/09/12 11:14:57;;;;;;;1.92;1.48;;;;;;;24.48;60.34;100962.56;5031890;28;20033;-66
2022/09/12 11:17:41;;;;;;;1.42;1.08;;;;;;;24.53;61.75;100963.97;5030504;28;20083;-66
2022/09/12 11:20:33;;;;;;;1.40;1.10;;;;;;;24.65;60.41;100958.47;5014705;28;20129;-66
2022/09/12 11:23:17;;;;;;;1.40;0.98;;;;;;;24.78;59.27;100953.72;5022817;28;20037;-66
2022/09/12 11:25:50;;;;;;;1.13;0.90;;;;;;;24.66;59.24;100951.72;5034534;28;20036;-66
2022/09/12 11:28:21;;;;;;;0.50;0.40;;;;;;;24.86;58.49;100957.00;5035825;28;20425;-66
2022/09/12 11:31:39;;;;;;;0.55;0.50;;;;;;;24.95;56.04;100957.84;5001411;28;20033;-67
2022/09/12 11:34:09;;;;;;;0.50;0.50;;;;;;;24.69;55.81;100952.81;4980202;28;20064;-66
2022/09/12 11:37:13;;;;;;;2.47;0.55;;;;;;;24.99;56.48;100944.72;5013569;28;20053;-66
2022/09/12 11:39:43;;;;;;;0.40;0.35;;;;;;;25.19;55.40;100951.94;5011501;28;20124;-66
2022/09/12 11:42:27;;;;;;;0.70;0.60;;;;;;;25.19;55.41;100946.41;5024305;28;20383;-66
2022/09/12 11:45:12;;;;;;;0.70;0.40;;;;;;;25.23;54.16;100947.84;5028412;28;20049;-66
2022/09/12 11:47:40;;;;;;;0.77;0.65;;;;;;;25.21;55.43;100949.50;5008585;28;20514;-66
2022/09/12 11:50:17;;;;;;;0.50;0.40;;;;;;;25.37;55.54;100941.06;5026671;28;20025;-66
2022/09/12 11:52:43;;;;;;;0.80;0.60;;;;;;;25.11;53.61;100945.91;5025287;28;20128;-65